createdAt,value
2023-04-15T00:01:41.950Z,48.09
2023-04-15T00:04:09.210Z,48.41
2023-04-15T00:06:37.839Z,48.46
2023-04-15T00:09:05.385Z,48.62
2023-04-15T00:11:32.603Z,49.00
2023-04-15T00:13:59.799Z,49.01
2023-04-15T00:16:27.136Z,49.06
2023-04-15T00:18:54.462Z,48.94
2023-04-15T00:21:21.920Z,48.95
2023-04-15T00:23:49.038Z,48.96
2023-04-15T00:26:16.253Z,48.81
2023-04-15T00:28:43.572Z,48.97
2023-04-15T00:31:11.098Z,49.01
2023-04-15T00:33:38.578Z,49.00
2023-04-15T00:36:07.725Z,49.31
2023-04-15T00:38:34.954Z,49.47
2023-04-15T00:41:03.702Z,49.33
2023-04-15T00:43:30.917Z,49.21
2023-04-15T00:46:01.124Z,49.39
2023-04-15T00:48:29.165Z,49.52
2023-04-15T00:50:56.333Z,49.51
2023-04-15T00:53:23.815Z,49.55
2023-04-15T00:55:51.227Z,49.58
2023-04-15T00:58:19.407Z,49.52
2023-04-15T01:00:47.231Z,49.76
2023-04-15T01:03:14.608Z,49.54
2023-04-15T01:05:41.902Z,49.31
2023-04-15T01:08:09.117Z,49.40
2023-04-15T01:10:36.665Z,49.62
2023-04-15T01:13:04.402Z,49.31
2023-04-15T01:15:31.803Z,49.59
2023-04-15T01:18:00.208Z,49.35
2023-04-15T01:20:28.935Z,49.84
2023-04-15T01:22:56.679Z,49.66
2023-04-15T01:25:34.303Z,49.39
2023-04-15T01:28:02.089Z,49.60
2023-04-15T01:30:29.544Z,49.63
2023-04-15T01:32:56.805Z,49.61
2023-04-15T01:35:24.325Z,49.65
2023-04-15T01:37:51.971Z,49.97
2023-04-15T01:40:19.421Z,50.04
2023-04-15T01:42:46.932Z,50.00
2023-04-15T01:45:14.195Z,49.95
2023-04-15T01:47:41.686Z,50.30
2023-04-15T01:50:09.577Z,50.06
2023-04-15T01:52:36.797Z,50.38
2023-04-15T01:55:04.462Z,50.44
2023-04-15T01:57:31.678Z,50.01
2023-04-15T01:59:58.890Z,50.23
2023-04-15T02:02:26.183Z,50.35
2023-04-15T02:04:53.341Z,50.34
2023-04-15T02:07:20.567Z,50.28
2023-04-15T02:09:47.898Z,50.63
2023-04-15T02:12:15.093Z,50.72
2023-04-15T02:14:42.284Z,50.73
2023-04-15T02:17:09.538Z,50.49
2023-04-15T02:19:36.838Z,50.51
2023-04-15T02:22:04.516Z,50.85
2023-04-15T02:24:32.067Z,50.60
2023-04-15T02:26:59.424Z,50.51
2023-04-15T02:29:26.782Z,50.51
2023-04-15T02:31:54.150Z,50.56
2023-04-15T02:34:21.509Z,50.61
2023-04-15T02:36:48.727Z,50.76
2023-04-15T02:39:15.933Z,50.62
2023-04-15T02:41:43.504Z,50.67
2023-04-15T02:44:11.452Z,50.57
2023-04-15T02:46:38.779Z,50.66
2023-04-15T02:49:06.237Z,50.79
2023-04-15T02:51:33.472Z,50.63
2023-04-15T02:54:00.627Z,50.50
2023-04-15T02:56:27.996Z,50.58
2023-04-15T02:58:55.293Z,50.53
2023-04-15T03:01:22.542Z,50.60
2023-04-15T03:03:49.923Z,50.80
2023-04-15T03:06:17.238Z,50.73
2023-04-15T03:08:44.433Z,50.79
2023-04-15T03:11:11.665Z,51.15
2023-04-15T03:13:38.988Z,50.95
2023-04-15T03:16:06.990Z,50.81
2023-04-15T03:18:34.318Z,51.28
2023-04-15T03:21:01.689Z,51.08
2023-04-15T03:23:29.179Z,50.88
2023-04-15T03:25:56.386Z,51.27
2023-04-15T03:28:24.279Z,51.57
2023-04-15T03:30:51.504Z,51.62
2023-04-15T03:33:18.732Z,51.92
2023-04-15T03:35:46.039Z,51.29
2023-04-15T03:38:13.264Z,51.54
2023-04-15T03:40:44.426Z,51.66
2023-04-15T03:43:11.743Z,51.73
2023-04-15T03:45:39.161Z,51.39
2023-04-15T03:48:16.466Z,51.43
2023-04-15T03:50:44.858Z,51.68
2023-04-15T03:53:12.231Z,51.23
2023-04-15T03:55:39.488Z,51.78
2023-04-15T03:58:06.712Z,51.37
2023-04-15T04:00:33.937Z,51.14
2023-04-15T04:03:01.279Z,51.41
2023-04-15T04:05:29.060Z,51.22
2023-04-15T04:07:56.567Z,51.29
2023-04-15T04:10:23.806Z,51.15
2023-04-15T04:12:51.162Z,50.93
2023-04-15T04:15:18.480Z,50.90
2023-04-15T04:17:45.993Z,50.83
2023-04-15T04:20:13.425Z,50.87
2023-04-15T04:22:41.335Z,50.71
2023-04-15T04:25:09.920Z,50.81
2023-04-15T04:27:37.513Z,50.72
2023-04-15T04:30:06.479Z,50.99
2023-04-15T04:32:33.746Z,51.09
2023-04-15T04:35:00.950Z,50.98
2023-04-15T04:37:28.211Z,51.18
2023-04-15T04:39:55.432Z,50.93
2023-04-15T04:42:23.086Z,50.66
2023-04-15T04:44:50.385Z,50.95
2023-04-15T04:47:17.679Z,50.90
2023-04-15T04:49:45.063Z,51.09
2023-04-15T04:52:12.638Z,51.74
2023-04-15T04:54:39.813Z,51.12
2023-04-15T04:57:07.005Z,51.28
2023-04-15T04:59:34.484Z,51.20
2023-04-15T05:02:01.942Z,50.82
2023-04-15T05:04:29.215Z,51.04
2023-04-15T05:06:56.412Z,51.32
2023-04-15T05:09:23.766Z,51.47
2023-04-15T05:11:50.946Z,51.41
2023-04-15T05:14:18.201Z,51.52
2023-04-15T05:16:45.552Z,51.77
2023-04-15T05:19:12.720Z,51.90
2023-04-15T05:21:40.024Z,51.93
2023-04-15T05:24:07.331Z,52.01
2023-04-15T05:26:34.516Z,51.85
2023-04-15T05:29:02.156Z,52.02
2023-04-15T05:31:30.061Z,51.61
2023-04-15T05:33:57.422Z,51.76
2023-04-15T05:36:24.781Z,51.76
2023-04-15T05:38:54.334Z,51.78
2023-04-15T05:41:21.833Z,51.60
2023-04-15T05:43:49.070Z,51.73
2023-04-15T05:46:16.510Z,51.65
2023-04-15T05:48:43.716Z,51.49
2023-04-15T05:51:11.110Z,51.71
2023-04-15T05:53:38.454Z,51.86
2023-04-15T05:56:05.800Z,51.45
2023-04-15T05:58:33.112Z,51.25
2023-04-15T06:01:00.506Z,51.45
2023-04-15T06:03:27.809Z,51.24
2023-04-15T06:05:55.256Z,51.27
2023-04-15T06:08:22.568Z,51.27
2023-04-15T06:10:49.852Z,51.61
2023-04-15T06:13:17.476Z,51.24
2023-04-15T06:15:44.846Z,50.59
2023-04-15T06:18:12.304Z,51.07
2023-04-15T06:20:41.963Z,51.31
2023-04-15T06:23:09.485Z,51.08
2023-04-15T06:25:36.715Z,50.92
2023-04-15T06:28:04.280Z,50.93
2023-04-15T06:30:31.908Z,50.96
2023-04-15T06:32:59.285Z,50.75
2023-04-15T06:35:28.177Z,50.60
2023-04-15T06:37:55.398Z,51.13
2023-04-15T06:40:22.753Z,50.79
2023-04-15T06:42:50.004Z,50.70
2023-04-15T06:45:17.347Z,50.82
2023-04-15T06:47:45.810Z,50.58
2023-04-15T06:50:12.994Z,50.25
2023-04-15T06:52:40.484Z,50.14
2023-04-15T06:55:08.421Z,49.42
2023-04-15T06:57:35.745Z,49.39
2023-04-15T07:00:03.756Z,49.26
2023-04-15T07:02:31.522Z,49.24
2023-04-15T07:05:02.463Z,48.74
2023-04-15T07:07:31.279Z,49.08
2023-04-15T07:09:59.804Z,48.65
2023-04-15T07:12:26.952Z,48.95
2023-04-15T07:14:54.126Z,48.56
2023-04-15T07:17:22.379Z,47.58
2023-04-15T07:19:49.656Z,47.25
2023-04-15T07:22:17.057Z,47.00
2023-04-15T07:24:44.758Z,46.62
2023-04-15T07:27:12.378Z,46.58
2023-04-15T07:29:39.536Z,47.08
2023-04-15T07:32:06.775Z,46.59
2023-04-15T07:34:34.068Z,46.79
2023-04-15T07:37:01.269Z,47.07
2023-04-15T07:39:28.420Z,46.91
2023-04-15T07:41:55.804Z,47.03
2023-04-15T07:44:23.126Z,46.80
2023-04-15T07:46:50.331Z,46.79
2023-04-15T07:49:17.569Z,46.73
2023-04-15T07:51:44.862Z,46.86
2023-04-15T07:54:12.018Z,46.47
2023-04-15T07:56:39.180Z,46.61
2023-04-15T07:59:06.403Z,46.54
2023-04-15T08:01:33.734Z,46.13
2023-04-15T08:04:01.235Z,46.12
2023-04-15T08:06:28.514Z,46.07
2023-04-15T08:08:55.804Z,46.07
2023-04-15T08:11:23.144Z,45.67
2023-04-15T08:13:50.524Z,45.46
2023-04-15T08:16:23.761Z,45.63
2023-04-15T08:18:53.981Z,45.34
2023-04-15T08:21:21.550Z,45.33
2023-04-15T08:23:51.525Z,44.92
2023-04-15T08:26:20.767Z,44.57
2023-04-15T08:28:49.223Z,44.32
2023-04-15T08:31:18.561Z,44.86
2023-04-15T08:33:46.785Z,44.36
2023-04-15T08:36:14.048Z,43.38
2023-04-15T08:38:41.306Z,43.85
2023-04-15T08:41:25.384Z,43.84
2023-04-15T08:44:06.793Z,43.13
2023-04-15T08:46:34.139Z,43.30
2023-04-15T08:49:05.132Z,42.62
2023-04-15T08:51:33.020Z,42.58
2023-04-15T08:54:02.074Z,42.71
2023-04-15T08:56:33.045Z,42.64
2023-04-15T08:59:01.402Z,42.41
2023-04-15T09:01:29.629Z,42.31
2023-04-15T09:03:59.043Z,41.59
2023-04-15T09:06:26.852Z,41.59
2023-04-15T09:08:54.188Z,41.79
2023-04-15T09:11:22.905Z,41.32
2023-04-15T09:13:50.750Z,40.91
2023-04-15T09:16:18.113Z,41.05
2023-04-15T09:18:45.518Z,41.12
2023-04-15T09:21:16.514Z,40.99
2023-04-15T09:24:01.705Z,40.42
2023-04-15T09:26:39.147Z,40.17
2023-04-15T09:29:12.912Z,40.18
2023-04-15T09:31:41.498Z,39.79
2023-04-15T09:34:09.218Z,39.49
2023-04-15T09:36:55.212Z,39.96
2023-04-15T09:39:22.554Z,39.59
2023-04-15T09:42:08.778Z,38.96
2023-04-15T09:44:36.100Z,38.25
2023-04-15T09:47:03.305Z,38.60
2023-04-15T09:49:30.521Z,38.43
2023-04-15T09:52:06.147Z,38.27
2023-04-15T09:54:38.709Z,38.56
2023-04-15T09:57:09.705Z,38.25
2023-04-15T09:59:36.887Z,38.37
2023-04-15T10:02:07.434Z,37.51
2023-04-15T10:04:40.512Z,37.40
2023-04-15T10:07:09.595Z,37.36
2023-04-15T10:09:39.461Z,36.66
2023-04-15T10:12:06.960Z,36.56
2023-04-15T10:14:38.575Z,37.12
2023-04-15T10:17:07.976Z,35.92
2023-04-15T10:19:38.430Z,36.08
2023-04-15T10:22:07.010Z,36.37
2023-04-15T10:24:35.081Z,35.58
2023-04-15T10:27:05.223Z,35.42
2023-04-15T10:29:32.848Z,34.92
2023-04-15T10:32:01.672Z,34.67
2023-04-15T10:34:31.876Z,34.63
2023-04-15T10:37:02.985Z,34.43
2023-04-15T10:39:38.048Z,34.48
2023-04-15T10:42:14.421Z,34.97
2023-04-15T10:44:50.931Z,33.80
2023-04-15T10:47:21.481Z,33.32
2023-04-15T10:49:58.132Z,33.31
2023-04-15T10:52:28.539Z,33.83
2023-04-15T10:55:10.815Z,33.63
2023-04-15T10:57:42.919Z,33.03
2023-04-15T11:00:18.872Z,32.90
2023-04-15T11:02:59.304Z,33.06
2023-04-15T11:05:53.009Z,33.24
2023-04-15T11:08:40.939Z,33.46
2023-04-15T11:11:08.395Z,33.24
2023-04-15T11:13:35.704Z,33.50
2023-04-15T11:16:03.945Z,33.19
2023-04-15T11:18:33.840Z,32.88
2023-04-15T11:21:04.858Z,33.55
2023-04-15T11:23:43.370Z,32.86
2023-04-15T11:26:11.535Z,33.17
2023-04-15T11:28:44.653Z,33.24
2023-04-15T11:31:17.219Z,33.38
2023-04-15T11:33:56.705Z,33.18
2023-04-15T11:36:30.107Z,32.95
2023-04-15T11:38:59.626Z,32.73
2023-04-15T11:41:27.201Z,33.05
2023-04-15T11:43:54.593Z,32.57
2023-04-15T11:46:29.138Z,32.85
2023-04-15T11:48:56.349Z,32.83
2023-04-15T11:51:23.973Z,32.85
2023-04-15T11:53:51.711Z,32.41
2023-04-15T11:56:22.142Z,32.99
2023-04-15T11:58:55.715Z,32.76
2023-04-15T12:01:41.417Z,32.78
2023-04-15T12:04:18.665Z,32.79
2023-04-15T12:06:47.474Z,32.69
2023-04-15T12:09:18.773Z,32.62
2023-04-15T12:11:52.917Z,32.75
2023-04-15T12:14:29.799Z,31.94
2023-04-15T12:17:04.387Z,32.28
2023-04-15T12:19:40.417Z,32.61
2023-04-15T12:22:11.526Z,32.97
2023-04-15T12:24:40.275Z,32.63
2023-04-15T12:27:11.486Z,32.25
2023-04-15T12:29:41.380Z,32.62
2023-04-15T12:32:10.937Z,31.57
2023-04-15T12:34:44.766Z,31.88
2023-04-15T12:37:13.131Z,31.85
2023-04-15T12:39:43.158Z,31.08
2023-04-15T12:42:12.148Z,32.17
2023-04-15T12:44:40.321Z,32.17
2023-04-15T12:47:10.060Z,32.12
2023-04-15T12:49:39.919Z,31.95
2023-04-15T12:52:07.650Z,31.32
2023-04-15T12:54:34.953Z,31.45
2023-04-15T12:57:07.441Z,31.13
2023-04-15T12:59:36.068Z,31.11
2023-04-15T13:02:04.342Z,29.80
2023-04-15T13:04:31.891Z,30.01
2023-04-15T13:06:59.449Z,29.86
2023-04-15T13:09:26.860Z,29.50
2023-04-15T13:11:54.621Z,29.34
2023-04-15T13:14:22.050Z,29.51
2023-04-15T13:16:49.442Z,29.69
2023-04-15T13:19:16.760Z,30.53
2023-04-15T13:21:44.129Z,30.16
2023-04-15T13:24:11.372Z,29.54
2023-04-15T13:26:38.620Z,30.15
2023-04-15T13:29:05.909Z,29.93
2023-04-15T13:31:33.304Z,29.87
2023-04-15T13:34:00.876Z,30.37
2023-04-15T13:36:28.359Z,29.83
2023-04-15T13:38:55.642Z,29.94
2023-04-15T13:41:22.946Z,29.57
2023-04-15T13:43:50.182Z,28.94
2023-04-15T13:46:17.557Z,29.59
2023-04-15T13:48:44.999Z,28.60
2023-04-15T13:51:12.197Z,30.12
2023-04-15T13:53:39.850Z,29.07
2023-04-15T13:56:10.693Z,28.98
2023-04-15T13:58:38.530Z,29.16
2023-04-15T14:01:07.417Z,28.74
2023-04-15T14:03:36.175Z,27.98
2023-04-15T14:06:05.251Z,28.50
2023-04-15T14:08:33.517Z,29.48
2023-04-15T14:11:00.906Z,29.60
2023-04-15T14:13:28.354Z,28.80
2023-04-15T14:15:57.496Z,28.42
2023-04-15T14:18:24.901Z,29.18
2023-04-15T14:20:52.168Z,29.33
2023-04-15T14:23:19.706Z,28.17
2023-04-15T14:25:48.288Z,29.45
2023-04-15T14:28:16.592Z,29.00
2023-04-15T14:30:44.034Z,27.74
2023-04-15T14:33:11.464Z,27.12
2023-04-15T14:35:39.367Z,27.34
2023-04-15T14:38:06.560Z,27.49
2023-04-15T14:40:34.224Z,27.29
2023-04-15T14:43:01.570Z,28.26
2023-04-15T14:45:30.508Z,27.53
2023-04-15T14:47:58.868Z,28.33
2023-04-15T14:50:26.348Z,28.15
2023-04-15T14:52:53.799Z,28.24
2023-04-15T14:55:20.954Z,28.57
2023-04-15T14:57:48.337Z,28.67
2023-04-15T15:00:16.452Z,28.42
2023-04-15T15:02:44.115Z,28.83
2023-04-15T15:05:12.150Z,28.56
2023-04-15T15:07:40.196Z,28.97
2023-04-15T15:10:09.091Z,29.18
2023-04-15T15:12:36.428Z,29.78
2023-04-15T15:15:12.162Z,29.78
2023-04-15T15:17:43.566Z,29.62
2023-04-15T15:20:11.260Z,29.98
2023-04-15T15:22:38.643Z,29.77
2023-04-15T15:25:06.449Z,29.38
2023-04-15T15:27:33.798Z,29.59
2023-04-15T15:30:01.505Z,29.49
2023-04-15T15:32:29.137Z,30.66
2023-04-15T15:34:56.584Z,29.74
2023-04-15T15:37:23.942Z,30.29
2023-04-15T15:39:53.632Z,30.28
2023-04-15T15:42:20.886Z,30.79
2023-04-15T15:44:48.128Z,30.75
2023-04-15T15:47:21.269Z,30.89
2023-04-15T15:49:48.844Z,30.61
2023-04-15T15:52:16.290Z,30.37
2023-04-15T15:54:43.626Z,30.09
2023-04-15T15:57:11.430Z,29.90
2023-04-15T15:59:38.699Z,30.14
2023-04-15T16:02:06.057Z,30.20
2023-04-15T16:04:33.513Z,30.39
2023-04-15T16:07:00.910Z,30.04
2023-04-15T16:09:28.269Z,31.20
2023-04-15T16:11:55.621Z,30.68
2023-04-15T16:14:24.582Z,30.49
2023-04-15T16:16:53.323Z,30.95
2023-04-15T16:19:21.657Z,31.10
2023-04-15T16:21:49.313Z,31.17
2023-04-15T16:24:16.667Z,31.10
2023-04-15T16:26:43.839Z,31.83
2023-04-15T16:29:11.197Z,31.98
2023-04-15T16:31:38.601Z,31.85
2023-04-15T16:34:06.508Z,32.07
2023-04-15T16:36:36.733Z,32.10
2023-04-15T16:39:04.397Z,32.52
2023-04-15T16:41:34.308Z,32.68
2023-04-15T16:44:02.315Z,32.52
2023-04-15T16:46:29.746Z,32.66
2023-04-15T16:48:57.379Z,32.70
2023-04-15T16:51:24.659Z,32.75
2023-04-15T16:53:51.883Z,33.40
2023-04-15T16:56:19.793Z,33.50
2023-04-15T16:58:47.137Z,33.47
2023-04-15T17:01:14.743Z,33.64
2023-04-15T17:03:42.214Z,34.12
2023-04-15T17:06:10.201Z,33.86
2023-04-15T17:08:37.933Z,33.27
2023-04-15T17:11:05.796Z,33.76
2023-04-15T17:13:33.094Z,34.29
2023-04-15T17:16:01.071Z,33.87
2023-04-15T17:18:29.167Z,33.98
2023-04-15T17:20:57.215Z,34.22
2023-04-15T17:23:25.854Z,34.29
2023-04-15T17:25:53.826Z,33.92
2023-04-15T17:28:21.658Z,34.01
2023-04-15T17:30:49.148Z,34.16
2023-04-15T17:33:54.049Z,34.54
2023-04-15T17:36:04.679Z,34.61
2023-04-15T17:38:32.603Z,34.74
2023-04-15T17:41:00.408Z,35.06
2023-04-15T17:43:27.725Z,34.99
2023-04-15T17:45:56.199Z,35.47
2023-04-15T17:48:26.226Z,35.48
2023-04-15T17:50:53.885Z,35.80
2023-04-15T17:53:21.366Z,35.53
2023-04-15T17:55:48.670Z,36.14
2023-04-15T17:58:15.874Z,35.97
2023-04-15T18:00:43.218Z,36.47
2023-04-15T18:03:10.694Z,37.88
2023-04-15T18:05:40.323Z,38.35
2023-04-15T18:08:09.960Z,38.35
2023-04-15T18:10:40.006Z,39.16
2023-04-15T18:13:07.376Z,39.67
2023-04-15T18:15:35.318Z,39.98
2023-04-15T18:18:03.506Z,40.14
2023-04-15T18:20:30.994Z,40.09
2023-04-15T18:22:58.263Z,40.02
2023-04-15T18:25:26.235Z,40.13
2023-04-15T18:27:55.586Z,40.11
2023-04-15T18:30:23.121Z,40.16
2023-04-15T18:32:50.485Z,39.76
2023-04-15T18:35:17.767Z,40.36
2023-04-15T18:37:45.097Z,40.40
2023-04-15T18:40:12.403Z,40.77
2023-04-15T18:42:39.834Z,41.25
2023-04-15T18:45:07.849Z,41.51
2023-04-15T18:47:35.264Z,41.48
2023-04-15T18:50:02.740Z,41.52
2023-04-15T18:52:30.658Z,41.52
2023-04-15T18:54:58.205Z,41.95
2023-04-15T18:57:31.075Z,41.90
2023-04-15T19:00:02.714Z,41.90
2023-04-15T19:02:30.073Z,41.67
2023-04-15T19:04:57.390Z,41.82
2023-04-15T19:07:24.915Z,42.26
2023-04-15T19:09:53.239Z,42.63
2023-04-15T19:12:20.454Z,42.48
2023-04-15T19:14:47.847Z,42.22
2023-04-15T19:17:15.476Z,42.50
2023-04-15T19:19:42.921Z,42.63
2023-04-15T19:22:10.448Z,42.50
2023-04-15T19:24:37.802Z,43.04
2023-04-15T19:27:05.042Z,42.86
2023-04-15T19:29:32.874Z,42.95
2023-04-15T19:32:00.255Z,43.13
2023-04-15T19:34:27.600Z,43.21
2023-04-15T19:36:54.877Z,43.39
2023-04-15T19:39:22.176Z,43.58
2023-04-15T19:41:49.397Z,43.45
2023-04-15T19:44:16.836Z,43.42
2023-04-15T19:46:44.095Z,43.57
2023-04-15T19:49:11.704Z,43.98
2023-04-15T19:51:38.961Z,44.08
2023-04-15T19:54:06.489Z,43.88
2023-04-15T19:56:34.550Z,44.09
2023-04-15T19:59:02.289Z,44.15
2023-04-15T20:01:29.692Z,44.46
2023-04-15T20:03:57.295Z,44.56
2023-04-15T20:06:24.786Z,44.65
2023-04-15T20:08:52.446Z,44.90
2023-04-15T20:11:19.896Z,44.92
2023-04-15T20:13:47.100Z,45.01
2023-04-15T20:16:14.532Z,44.84
2023-04-15T20:18:42.817Z,45.00
2023-04-15T20:21:10.689Z,44.97
2023-04-15T20:23:38.112Z,45.04
2023-04-15T20:26:05.387Z,45.49
2023-04-15T20:28:32.920Z,45.33
2023-04-15T20:31:03.726Z,45.11
2023-04-15T20:33:31.094Z,45.12
2023-04-15T20:35:58.606Z,44.87
2023-04-15T20:38:25.895Z,45.50
2023-04-15T20:40:53.239Z,45.77
2023-04-15T20:43:20.659Z,45.52
2023-04-15T20:45:49.185Z,45.72
2023-04-15T20:48:16.480Z,46.01
2023-04-15T20:50:43.645Z,45.98
2023-04-15T20:53:10.899Z,45.73
2023-04-15T20:55:38.305Z,45.93
2023-04-15T20:58:05.535Z,45.98
2023-04-15T21:00:32.990Z,45.71
2023-04-15T21:03:00.476Z,46.14
2023-04-15T21:05:27.940Z,46.32
2023-04-15T21:07:55.392Z,46.35
2023-04-15T21:10:22.839Z,46.42
2023-04-15T21:12:50.097Z,46.32
2023-04-15T21:15:17.694Z,46.14
2023-04-15T21:17:44.944Z,46.30
2023-04-15T21:20:12.673Z,46.72
2023-04-15T21:22:39.953Z,46.79
2023-04-15T21:25:07.833Z,47.03
2023-04-15T21:27:35.445Z,47.04
2023-04-15T21:30:03.774Z,46.87
2023-04-15T21:32:31.213Z,47.10
2023-04-15T21:34:58.429Z,47.41
2023-04-15T21:37:25.658Z,47.17
2023-04-15T21:39:52.936Z,47.31
2023-04-15T21:42:20.213Z,47.38
2023-04-15T21:44:47.378Z,47.42
2023-04-15T21:47:14.721Z,46.98
2023-04-15T21:49:42.154Z,47.32
2023-04-15T21:52:10.237Z,46.83
2023-04-15T21:54:37.900Z,47.37
2023-04-15T21:57:05.227Z,47.09
2023-04-15T21:59:32.401Z,47.41
2023-04-15T22:02:00.143Z,47.51
2023-04-15T22:04:27.876Z,47.46
2023-04-15T22:06:55.385Z,47.69
2023-04-15T22:09:22.998Z,47.50
2023-04-15T22:11:50.551Z,47.73
2023-04-15T22:14:17.750Z,47.72
2023-04-15T22:16:45.120Z,47.36
2023-04-15T22:19:12.470Z,47.82
2023-04-15T22:21:39.701Z,47.71
2023-04-15T22:24:32.074Z,47.54
2023-04-15T22:26:54.426Z,47.78
2023-04-15T22:29:22.358Z,47.98
2023-04-15T22:31:49.559Z,48.14
2023-04-15T22:34:17.024Z,47.85
2023-04-15T22:36:44.295Z,47.92
2023-04-15T22:39:11.460Z,47.96
2023-04-15T22:41:38.654Z,48.16
2023-04-15T22:44:05.876Z,47.88
2023-04-15T22:46:33.537Z,47.91
2023-04-15T22:49:00.924Z,48.21
2023-04-15T22:51:28.566Z,48.15
2023-04-15T22:53:56.331Z,48.21
2023-04-15T22:56:23.802Z,48.34
2023-04-15T22:58:52.083Z,48.26
2023-04-15T23:01:19.617Z,48.18
2023-04-15T23:03:56.242Z,48.36
2023-04-15T23:06:30.362Z,48.88
2023-04-15T23:08:57.590Z,48.61
2023-04-15T23:11:24.957Z,48.43
2023-04-15T23:13:52.355Z,48.54
2023-04-15T23:16:19.609Z,48.63
2023-04-15T23:18:46.829Z,48.55
2023-04-15T23:21:14.297Z,48.38
2023-04-15T23:23:41.472Z,48.55
2023-04-15T23:26:09.365Z,48.32
2023-04-15T23:28:36.510Z,48.35
2023-04-15T23:31:03.813Z,48.64
2023-04-15T23:33:31.109Z,48.20
2023-04-15T23:35:58.442Z,48.54
2023-04-15T23:38:25.641Z,48.70
2023-04-15T23:40:52.987Z,48.73
2023-04-15T23:43:20.520Z,48.59
2023-04-15T23:45:47.969Z,48.60
2023-04-15T23:48:15.227Z,48.41
2023-04-15T23:50:42.430Z,48.77
2023-04-15T23:53:09.684Z,49.02
2023-04-15T23:55:36.908Z,48.58
2023-04-15T23:58:04.104Z,48.60
